sensor_id;sensor_type;location;lat;lon;timestamp;temperature;humidity
10911;DHT22;5508;49.150;11.030;2023-03-03T00:01:05;-2.30;99.90
10911;DHT22;5508;49.150;11.030;2023-03-03T00:04:06;-2.40;99.90
10911;DHT22;5508;49.150;11.030;2023-03-03T00:07:06;-2.40;99.90
10911;DHT22;5508;49.150;11.030;2023-03-03T00:10:07;-2.40;99.90
10911;DHT22;5508;49.150;11.030;2023-03-03T00:13:19;-2.40;99.90
10911;DHT22;5508;49.150;11.030;2023-03-03T00:16:28;-2.40;99.90
10911;DHT22;5508;49.150;11.030;2023-03-03T00:19:37;-2.40;99.90
10911;DHT22;5508;49.150;11.030;2023-03-03T00:22:38;-2.40;99.90
10911;DHT22;5508;49.150;11.030;2023-03-03T00:25:42;-2.50;99.90
10911;DHT22;5508;49.150;11.030;2023-03-03T00:28:46;-2.60;99.90
10911;DHT22;5508;49.150;11.030;2023-03-03T00:31:47;-2.50;99.90
10911;DHT22;5508;49.150;11.030;2023-03-03T00:34:48;-2.60;99.90
10911;DHT22;5508;49.150;11.030;2023-03-03T00:37:57;-2.60;99.90
10911;DHT22;5508;49.150;11.030;2023-03-03T00:40:59;-2.70;99.90
10911;DHT22;5508;49.150;11.030;2023-03-03T00:47:37;-2.70;99.90
10911;DHT22;5508;49.150;11.030;2023-03-03T00:50:40;-2.90;99.90
10911;DHT22;5508;49.150;11.030;2023-03-03T00:53:42;-2.90;99.90
10911;DHT22;5508;49.150;11.030;2023-03-03T00:56:43;-2.90;99.90
10911;DHT22;5508;49.150;11.030;2023-03-03T00:59:43;-3.00;99.90
10911;DHT22;5508;49.150;11.030;2023-03-03T01:02:44;-3.00;99.90
10911;DHT22;5508;49.150;11.030;2023-03-03T01:05:45;-3.00;99.90
10911;DHT22;5508;49.150;11.030;2023-03-03T01:08:46;-3.00;99.90
10911;DHT22;5508;49.150;11.030;2023-03-03T01:11:47;-3.00;99.90
10911;DHT22;5508;49.150;11.030;2023-03-03T01:14:47;-2.90;99.90
10911;DHT22;5508;49.150;11.030;2023-03-03T01:17:52;-2.90;99.90
10911;DHT22;5508;49.150;11.030;2023-03-03T01:20:53;-2.90;99.90
10911;DHT22;5508;49.150;11.030;2023-03-03T01:23:54;-2.90;99.90
10911;DHT22;5508;49.150;11.030;2023-03-03T01:26:55;-3.00;99.90
10911;DHT22;5508;49.150;11.030;2023-03-03T01:29:56;-3.10;99.90
10911;DHT22;5508;49.150;11.030;2023-03-03T01:32:57;-3.10;99.90
10911;DHT22;5508;49.150;11.030;2023-03-03T01:35:58;-3.20;99.90
10911;DHT22;5508;49.150;11.030;2023-03-03T01:38:59;-3.20;99.90
10911;DHT22;5508;49.150;11.030;2023-03-03T01:41:59;-3.30;99.90
10911;DHT22;5508;49.150;11.030;2023-03-03T01:45:23;-3.30;99.90
10911;DHT22;5508;49.150;11.030;2023-03-03T01:48:31;-3.30;99.90
10911;DHT22;5508;49.150;11.030;2023-03-03T01:51:55;-3.30;99.90
10911;DHT22;5508;49.150;11.030;2023-03-03T01:55:05;-3.40;99.90
10911;DHT22;5508;49.150;11.030;2023-03-03T01:58:32;-3.40;99.90
10911;DHT22;5508;49.150;11.030;2023-03-03T02:01:34;-3.30;99.90
10911;DHT22;5508;49.150;11.030;2023-03-03T02:04:35;-3.40;99.90
10911;DHT22;5508;49.150;11.030;2023-03-03T02:07:36;-3.40;99.90
10911;DHT22;5508;49.150;11.030;2023-03-03T02:10:37;-3.50;99.90
10911;DHT22;5508;49.150;11.030;2023-03-03T02:13:38;-3.50;99.90
10911;DHT22;5508;49.150;11.030;2023-03-03T02:16:39;-3.60;99.90
10911;DHT22;5508;49.150;11.030;2023-03-03T02:20:02;-3.60;99.90
10911;DHT22;5508;49.150;11.030;2023-03-03T02:26:20;-3.60;99.90
10911;DHT22;5508;49.150;11.030;2023-03-03T02:29:22;-3.60;99.90
10911;DHT22;5508;49.150;11.030;2023-03-03T02:32:22;-3.60;99.90
10911;DHT22;5508;49.150;11.030;2023-03-03T02:35:30;-3.60;99.90
10911;DHT22;5508;49.150;11.030;2023-03-03T02:38:38;-3.70;99.90
10911;DHT22;5508;49.150;11.030;2023-03-03T02:42:01;-3.70;99.90
10911;DHT22;5508;49.150;11.030;2023-03-03T02:45:04;-3.70;99.90
10911;DHT22;5508;49.150;11.030;2023-03-03T02:48:05;-3.80;99.90
10911;DHT22;5508;49.150;11.030;2023-03-03T02:51:06;-3.80;99.90
10911;DHT22;5508;49.150;11.030;2023-03-03T02:54:07;-3.80;99.90
10911;DHT22;5508;49.150;11.030;2023-03-03T02:57:08;-3.80;99.90
10911;DHT22;5508;49.150;11.030;2023-03-03T03:00:10;-3.80;99.90
10911;DHT22;5508;49.150;11.030;2023-03-03T03:03:11;-3.80;99.90
10911;DHT22;5508;49.150;11.030;2023-03-03T03:06:11;-3.80;99.90
10911;DHT22;5508;49.150;11.030;2023-03-03T03:09:13;-3.80;99.90
10911;DHT22;5508;49.150;11.030;2023-03-03T03:12:14;-3.80;99.90
10911;DHT22;5508;49.150;11.030;2023-03-03T03:15:15;-3.70;99.90
10911;DHT22;5508;49.150;11.030;2023-03-03T03:18:16;-3.70;99.90
10911;DHT22;5508;49.150;11.030;2023-03-03T03:21:17;-3.60;99.90
10911;DHT22;5508;49.150;11.030;2023-03-03T03:24:17;-3.60;99.90
10911;DHT22;5508;49.150;11.030;2023-03-03T03:27:18;-3.60;99.90
10911;DHT22;5508;49.150;11.030;2023-03-03T03:30:19;-3.60;99.90
10911;DHT22;5508;49.150;11.030;2023-03-03T03:33:21;-3.60;99.90
10911;DHT22;5508;49.150;11.030;2023-03-03T03:36:21;-3.50;99.90
10911;DHT22;5508;49.150;11.030;2023-03-03T03:39:22;-3.40;99.90
10911;DHT22;5508;49.150;11.030;2023-03-03T03:42:23;-3.30;99.90
10911;DHT22;5508;49.150;11.030;2023-03-03T03:45:23;-3.20;99.90
10911;DHT22;5508;49.150;11.030;2023-03-03T03:48:25;-3.10;99.90
10911;DHT22;5508;49.150;11.030;2023-03-03T03:51:25;-3.00;99.90
10911;DHT22;5508;49.150;11.030;2023-03-03T03:54:26;-2.90;99.90
10911;DHT22;5508;49.150;11.030;2023-03-03T03:57:27;-2.90;99.90
10911;DHT22;5508;49.150;11.030;2023-03-03T04:00:27;-2.80;99.90
10911;DHT22;5508;49.150;11.030;2023-03-03T04:03:28;-2.70;99.90
10911;DHT22;5508;49.150;11.030;2023-03-03T04:06:28;-2.70;99.90
10911;DHT22;5508;49.150;11.030;2023-03-03T04:09:29;-2.50;99.90
10911;DHT22;5508;49.150;11.030;2023-03-03T04:12:30;-2.50;99.90
10911;DHT22;5508;49.150;11.030;2023-03-03T04:15:37;-2.50;99.90
10911;DHT22;5508;49.150;11.030;2023-03-03T04:18:38;-2.40;99.90
10911;DHT22;5508;49.150;11.030;2023-03-03T04:21:38;-2.40;99.90
10911;DHT22;5508;49.150;11.030;2023-03-03T04:24:40;-2.40;99.90
10911;DHT22;5508;49.150;11.030;2023-03-03T04:27:40;-2.40;99.90
10911;DHT22;5508;49.150;11.030;2023-03-03T04:30:43;-2.40;99.90
10911;DHT22;5508;49.150;11.030;2023-03-03T04:33:43;-2.30;99.90
10911;DHT22;5508;49.150;11.030;2023-03-03T04:36:44;-2.30;99.90
10911;DHT22;5508;49.150;11.030;2023-03-03T04:39:44;-2.20;99.90
10911;DHT22;5508;49.150;11.030;2023-03-03T04:42:45;-2.10;99.90
10911;DHT22;5508;49.150;11.030;2023-03-03T04:45:46;-2.10;99.90
10911;DHT22;5508;49.150;11.030;2023-03-03T04:48:47;-2.10;99.90
10911;DHT22;5508;49.150;11.030;2023-03-03T04:51:47;-2.00;99.90
10911;DHT22;5508;49.150;11.030;2023-03-03T04:54:48;-1.90;99.90
10911;DHT22;5508;49.150;11.030;2023-03-03T04:57:48;-1.90;99.90
10911;DHT22;5508;49.150;11.030;2023-03-03T05:00:54;-1.80;99.90
10911;DHT22;5508;49.150;11.030;2023-03-03T05:03:55;-1.80;99.90
10911;DHT22;5508;49.150;11.030;2023-03-03T05:06:56;-1.70;99.90
10911;DHT22;5508;49.150;11.030;2023-03-03T05:09:56;-1.70;99.90
10911;DHT22;5508;49.150;11.030;2023-03-03T05:12:57;-1.60;99.90
10911;DHT22;5508;49.150;11.030;2023-03-03T05:15:58;-1.70;99.90
10911;DHT22;5508;49.150;11.030;2023-03-03T05:18:58;-1.70;99.90
10911;DHT22;5508;49.150;11.030;2023-03-03T05:21:59;-1.70;99.90
10911;DHT22;5508;49.150;11.030;2023-03-03T05:25:00;-1.60;99.90
10911;DHT22;5508;49.150;11.030;2023-03-03T05:28:00;-1.60;99.90
10911;DHT22;5508;49.150;11.030;2023-03-03T05:31:01;-1.70;99.90
10911;DHT22;5508;49.150;11.030;2023-03-03T05:34:02;-1.70;99.90
10911;DHT22;5508;49.150;11.030;2023-03-03T05:37:03;-1.70;99.90
10911;DHT22;5508;49.150;11.030;2023-03-03T05:40:06;-1.60;99.90
10911;DHT22;5508;49.150;11.030;2023-03-03T05:43:07;-1.60;99.90
10911;DHT22;5508;49.150;11.030;2023-03-03T05:46:07;-1.50;99.90
10911;DHT22;5508;49.150;11.030;2023-03-03T05:49:08;-1.40;99.90
10911;DHT22;5508;49.150;11.030;2023-03-03T05:52:09;-1.40;99.90
10911;DHT22;5508;49.150;11.030;2023-03-03T05:55:10;-1.50;99.90
10911;DHT22;5508;49.150;11.030;2023-03-03T05:58:10;-1.50;99.90
10911;DHT22;5508;49.150;11.030;2023-03-03T06:01:11;-1.50;99.90
10911;DHT22;5508;49.150;11.030;2023-03-03T06:04:12;-1.40;99.90
10911;DHT22;5508;49.150;11.030;2023-03-03T06:07:12;-1.40;99.90
10911;DHT22;5508;49.150;11.030;2023-03-03T06:10:13;-1.40;99.90
10911;DHT22;5508;49.150;11.030;2023-03-03T06:13:14;-1.40;99.90
10911;DHT22;5508;49.150;11.030;2023-03-03T06:16:14;-1.30;99.90
10911;DHT22;5508;49.150;11.030;2023-03-03T06:19:15;-1.20;99.90
10911;DHT22;5508;49.150;11.030;2023-03-03T06:22:16;-1.20;99.90
10911;DHT22;5508;49.150;11.030;2023-03-03T06:25:17;-1.10;99.90
10911;DHT22;5508;49.150;11.030;2023-03-03T06:28:17;-1.10;99.90
10911;DHT22;5508;49.150;11.030;2023-03-03T06:31:18;-1.10;99.90
10911;DHT22;5508;49.150;11.030;2023-03-03T06:34:19;-1.10;99.90
10911;DHT22;5508;49.150;11.030;2023-03-03T06:37:19;-1.10;99.90
10911;DHT22;5508;49.150;11.030;2023-03-03T06:40:20;-1.00;99.90
10911;DHT22;5508;49.150;11.030;2023-03-03T06:43:21;-0.90;99.90
10911;DHT22;5508;49.150;11.030;2023-03-03T06:46:21;-0.80;99.90
10911;DHT22;5508;49.150;11.030;2023-03-03T06:49:25;-0.80;99.90
10911;DHT22;5508;49.150;11.030;2023-03-03T06:52:26;-0.80;99.90
10911;DHT22;5508;49.150;11.030;2023-03-03T06:55:27;-0.70;99.90
10911;DHT22;5508;49.150;11.030;2023-03-03T06:58:27;-0.60;99.90
10911;DHT22;5508;49.150;11.030;2023-03-03T07:01:34;-0.60;99.90
10911;DHT22;5508;49.150;11.030;2023-03-03T07:04:35;-0.60;99.90
10911;DHT22;5508;49.150;11.030;2023-03-03T07:07:36;-0.60;99.60
10911;DHT22;5508;49.150;11.030;2023-03-03T07:10:38;-0.50;99.30
10911;DHT22;5508;49.150;11.030;2023-03-03T07:13:44;-0.50;98.90
10911;DHT22;5508;49.150;11.030;2023-03-03T07:16:46;-0.50;98.90
10911;DHT22;5508;49.150;11.030;2023-03-03T07:19:51;-0.40;98.40
10911;DHT22;5508;49.150;11.030;2023-03-03T07:22:51;-0.30;97.70
10911;DHT22;5508;49.150;11.030;2023-03-03T07:25:53;-0.30;97.90
10911;DHT22;5508;49.150;11.030;2023-03-03T07:29:18;-0.10;98.20
10911;DHT22;5508;49.150;11.030;2023-03-03T07:35:43;0.10;95.70
10911;DHT22;5508;49.150;11.030;2023-03-03T07:38:52;0.10;95.40
10911;DHT22;5508;49.150;11.030;2023-03-03T07:42:11;0.20;93.70
10911;DHT22;5508;49.150;11.030;2023-03-03T07:45:28;0.40;92.70
10911;DHT22;5508;49.150;11.030;2023-03-03T07:48:37;0.40;90.40
10911;DHT22;5508;49.150;11.030;2023-03-03T07:51:39;0.60;90.70
10911;DHT22;5508;49.150;11.030;2023-03-03T07:54:44;0.70;88.70
10911;DHT22;5508;49.150;11.030;2023-03-03T07:57:45;0.90;88.50
10911;DHT22;5508;49.150;11.030;2023-03-03T08:04:38;1.20;86.80
10911;DHT22;5508;49.150;11.030;2023-03-03T08:07:40;1.20;85.10
10911;DHT22;5508;49.150;11.030;2023-03-03T08:10:49;1.20;84.60
10911;DHT22;5508;49.150;11.030;2023-03-03T08:13:51;1.10;86.20
10911;DHT22;5508;49.150;11.030;2023-03-03T08:16:51;1.00;85.60
10911;DHT22;5508;49.150;11.030;2023-03-03T08:19:54;0.90;85.10
10911;DHT22;5508;49.150;11.030;2023-03-03T08:22:55;0.90;86.20
10911;DHT22;5508;49.150;11.030;2023-03-03T08:25:55;0.80;84.90
10911;DHT22;5508;49.150;11.030;2023-03-03T08:28:56;0.70;86.10
10911;DHT22;5508;49.150;11.030;2023-03-03T08:31:57;0.80;85.50
10911;DHT22;5508;49.150;11.030;2023-03-03T08:34:57;0.90;85.80
10911;DHT22;5508;49.150;11.030;2023-03-03T08:37:58;0.90;84.30
10911;DHT22;5508;49.150;11.030;2023-03-03T08:40:59;1.20;85.30
10911;DHT22;5508;49.150;11.030;2023-03-03T08:44:00;1.40;83.90
10911;DHT22;5508;49.150;11.030;2023-03-03T08:47:00;1.60;83.30
10911;DHT22;5508;49.150;11.030;2023-03-03T08:50:01;1.90;82.20
10911;DHT22;5508;49.150;11.030;2023-03-03T08:53:01;2.00;78.20
10911;DHT22;5508;49.150;11.030;2023-03-03T08:56:03;2.00;78.90
10911;DHT22;5508;49.150;11.030;2023-03-03T08:59:04;2.10;79.30
10911;DHT22;5508;49.150;11.030;2023-03-03T09:02:05;2.40;79.20
10911;DHT22;5508;49.150;11.030;2023-03-03T09:05:07;2.50;76.40
10911;DHT22;5508;49.150;11.030;2023-03-03T09:08:08;2.60;76.90
10911;DHT22;5508;49.150;11.030;2023-03-03T09:11:13;2.60;77.10
10911;DHT22;5508;49.150;11.030;2023-03-03T09:14:16;2.90;74.40
10911;DHT22;5508;49.150;11.030;2023-03-03T09:17:31;3.20;72.00
10911;DHT22;5508;49.150;11.030;2023-03-03T09:20:53;3.40;73.00
10911;DHT22;5508;49.150;11.030;2023-03-03T09:23:55;3.50;71.30
10911;DHT22;5508;49.150;11.030;2023-03-03T09:26:58;3.40;71.60
10911;DHT22;5508;49.150;11.030;2023-03-03T09:33:46;3.90;68.40
10911;DHT22;5508;49.150;11.030;2023-03-03T09:36:53;4.10;68.30
10911;DHT22;5508;49.150;11.030;2023-03-03T09:39:55;4.30;65.20
10911;DHT22;5508;49.150;11.030;2023-03-03T09:43:10;4.30;65.70
10911;DHT22;5508;49.150;11.030;2023-03-03T09:53:44;4.60;63.90
10911;DHT22;5508;49.150;11.030;2023-03-03T09:57:15;4.30;65.50
10911;DHT22;5508;49.150;11.030;2023-03-03T10:29:38;6.00;58.70
10911;DHT22;5508;49.150;11.030;2023-03-03T10:33:22;6.30;58.30
10911;DHT22;5508;49.150;11.030;2023-03-03T10:42:59;6.60;56.00
10911;DHT22;5508;49.150;11.030;2023-03-03T10:49:48;7.20;50.80
10911;DHT22;5508;49.150;11.030;2023-03-03T10:53:30;7.20;51.80
10911;DHT22;5508;49.150;11.030;2023-03-03T10:56:53;7.10;52.90
10911;DHT22;5508;49.150;11.030;2023-03-03T11:00:35;7.30;53.50
10911;DHT22;5508;49.150;11.030;2023-03-03T11:13:41;8.20;48.30
10911;DHT22;5508;49.150;11.030;2023-03-03T11:16:55;8.20;48.80
10911;DHT22;5508;49.150;11.030;2023-03-03T11:33:07;8.20;51.10
10911;DHT22;5508;49.150;11.030;2023-03-03T11:36:32;8.30;53.00
10911;DHT22;5508;49.150;11.030;2023-03-03T11:39:34;9.00;51.70
10911;DHT22;5508;49.150;11.030;2023-03-03T11:46:10;9.20;46.90
10911;DHT22;5508;49.150;11.030;2023-03-03T11:55:59;8.90;50.80
10911;DHT22;5508;49.150;11.030;2023-03-03T12:15:39;9.20;50.50
10911;DHT22;5508;49.150;11.030;2023-03-03T12:23:03;9.20;51.60
10911;DHT22;5508;49.150;11.030;2023-03-03T12:25:41;9.00;50.20
10911;DHT22;5508;49.150;11.030;2023-03-03T12:46:06;9.70;48.90
10911;DHT22;5508;49.150;11.030;2023-03-03T12:49:13;9.70;49.10
10911;DHT22;5508;49.150;11.030;2023-03-03T12:52:47;9.80;49.80
10911;DHT22;5508;49.150;11.030;2023-03-03T12:55:59;9.90;47.10
10911;DHT22;5508;49.150;11.030;2023-03-03T12:59:19;9.80;48.00
10911;DHT22;5508;49.150;11.030;2023-03-03T13:02:48;9.80;50.10
10911;DHT22;5508;49.150;11.030;2023-03-03T13:06:23;9.80;50.10
10911;DHT22;5508;49.150;11.030;2023-03-03T13:12:58;9.70;48.30
10911;DHT22;5508;49.150;11.030;2023-03-03T13:16:13;9.80;46.20
10911;DHT22;5508;49.150;11.030;2023-03-03T13:19:22;9.90;49.50
10911;DHT22;5508;49.150;11.030;2023-03-03T13:23:01;10.00;45.80
10911;DHT22;5508;49.150;11.030;2023-03-03T13:26:09;9.70;47.20
10911;DHT22;5508;49.150;11.030;2023-03-03T13:29:31;9.70;50.00
10911;DHT22;5508;49.150;11.030;2023-03-03T13:39:19;9.80;48.00
10911;DHT22;5508;49.150;11.030;2023-03-03T13:42:35;9.70;49.30
10911;DHT22;5508;49.150;11.030;2023-03-03T13:49:22;10.10;45.40
10911;DHT22;5508;49.150;11.030;2023-03-03T13:52:31;9.90;47.30
10911;DHT22;5508;49.150;11.030;2023-03-03T13:55:43;9.70;48.20
10911;DHT22;5508;49.150;11.030;2023-03-03T14:05:45;10.30;47.40
10911;DHT22;5508;49.150;11.030;2023-03-03T14:12:14;10.60;45.40
10911;DHT22;5508;49.150;11.030;2023-03-03T14:15:25;10.40;43.60
10911;DHT22;5508;49.150;11.030;2023-03-03T14:21:56;10.30;45.40
10911;DHT22;5508;49.150;11.030;2023-03-03T14:25:03;10.10;45.50
10911;DHT22;5508;49.150;11.030;2023-03-03T14:28:11;10.20;46.40
10911;DHT22;5508;49.150;11.030;2023-03-03T14:31:27;10.10;45.10
10911;DHT22;5508;49.150;11.030;2023-03-03T14:37:42;10.50;46.20
10911;DHT22;5508;49.150;11.030;2023-03-03T14:40:44;10.80;47.20
10911;DHT22;5508;49.150;11.030;2023-03-03T14:44:20;10.50;46.10
10911;DHT22;5508;49.150;11.030;2023-03-03T14:47:26;10.30;46.00
10911;DHT22;5508;49.150;11.030;2023-03-03T14:53:38;10.30;46.50
10911;DHT22;5508;49.150;11.030;2023-03-03T14:56:56;10.20;47.10
10911;DHT22;5508;49.150;11.030;2023-03-03T15:00:01;10.30;49.90
10911;DHT22;5508;49.150;11.030;2023-03-03T15:03:22;10.50;45.50
10911;DHT22;5508;49.150;11.030;2023-03-03T15:09:38;10.20;45.50
10911;DHT22;5508;49.150;11.030;2023-03-03T15:12:41;10.00;47.30
10911;DHT22;5508;49.150;11.030;2023-03-03T15:22:32;9.70;47.50
10911;DHT22;5508;49.150;11.030;2023-03-03T15:36:12;9.40;48.80
10911;DHT22;5508;49.150;11.030;2023-03-03T15:42:47;9.40;49.00
10911;DHT22;5508;49.150;11.030;2023-03-03T15:45:49;9.20;49.70
10911;DHT22;5508;49.150;11.030;2023-03-03T15:52:05;9.00;51.10
10911;DHT22;5508;49.150;11.030;2023-03-03T15:55:37;9.00;51.10
10911;DHT22;5508;49.150;11.030;2023-03-03T15:58:58;8.80;50.10
10911;DHT22;5508;49.150;11.030;2023-03-03T16:05:33;8.40;51.20
10911;DHT22;5508;49.150;11.030;2023-03-03T16:08:55;8.20;50.50
10911;DHT22;5508;49.150;11.030;2023-03-03T16:12:13;8.20;51.10
10911;DHT22;5508;49.150;11.030;2023-03-03T16:21:53;7.80;53.30
10911;DHT22;5508;49.150;11.030;2023-03-03T16:25:28;7.80;55.10
10911;DHT22;5508;49.150;11.030;2023-03-03T16:35:24;7.30;56.90
10911;DHT22;5508;49.150;11.030;2023-03-03T16:38:36;7.10;56.50
10911;DHT22;5508;49.150;11.030;2023-03-03T16:44:55;6.90;57.40
10911;DHT22;5508;49.150;11.030;2023-03-03T16:48:21;6.70;58.20
10911;DHT22;5508;49.150;11.030;2023-03-03T16:51:31;6.50;58.80
10911;DHT22;5508;49.150;11.030;2023-03-03T16:54:41;6.30;60.50
10911;DHT22;5508;49.150;11.030;2023-03-03T16:58:07;6.10;61.60
10911;DHT22;5508;49.150;11.030;2023-03-03T17:04:46;5.80;61.60
10911;DHT22;5508;49.150;11.030;2023-03-03T17:20:53;5.10;64.20
10911;DHT22;5508;49.150;11.030;2023-03-03T17:42:57;3.60;72.00
10911;DHT22;5508;49.150;11.030;2023-03-03T17:46:02;3.40;73.30
10911;DHT22;5508;49.150;11.030;2023-03-03T17:56:07;2.90;77.30
10911;DHT22;5508;49.150;11.030;2023-03-03T18:02:36;2.70;78.50
10911;DHT22;5508;49.150;11.030;2023-03-03T18:13:34;2.30;79.70
10911;DHT22;5508;49.150;11.030;2023-03-03T18:20:17;2.10;81.60
10911;DHT22;5508;49.150;11.030;2023-03-03T18:23:34;1.90;83.00
10911;DHT22;5508;49.150;11.030;2023-03-03T18:26:41;1.90;82.00
10911;DHT22;5508;49.150;11.030;2023-03-03T18:30:22;1.70;83.20
10911;DHT22;5508;49.150;11.030;2023-03-03T18:36:56;1.30;84.20
10911;DHT22;5508;49.150;11.030;2023-03-03T18:50:13;1.00;84.30
10911;DHT22;5508;49.150;11.030;2023-03-03T18:53:17;1.10;84.20
10911;DHT22;5508;49.150;11.030;2023-03-03T19:00:22;0.90;85.50
10911;DHT22;5508;49.150;11.030;2023-03-03T19:03:55;0.80;85.30
10911;DHT22;5508;49.150;11.030;2023-03-03T19:07:27;0.60;86.90
10911;DHT22;5508;49.150;11.030;2023-03-03T19:11:00;0.60;87.10
10911;DHT22;5508;49.150;11.030;2023-03-03T19:14:29;0.60;86.60
10911;DHT22;5508;49.150;11.030;2023-03-03T19:20:39;0.30;87.60
10911;DHT22;5508;49.150;11.030;2023-03-03T19:24:23;0.20;88.50
10911;DHT22;5508;49.150;11.030;2023-03-03T19:27:35;0.10;89.30
10911;DHT22;5508;49.150;11.030;2023-03-03T19:30:57;0.00;89.80
10911;DHT22;5508;49.150;11.030;2023-03-03T19:34:23;-0.20;90.80
10911;DHT22;5508;49.150;11.030;2023-03-03T19:43:59;-0.30;92.00
10911;DHT22;5508;49.150;11.030;2023-03-03T19:47:31;-0.30;92.00
10911;DHT22;5508;49.150;11.030;2023-03-03T19:57:02;-0.50;92.60
10911;DHT22;5508;49.150;11.030;2023-03-03T20:10:34;-0.80;95.10
10911;DHT22;5508;49.150;11.030;2023-03-03T20:16:36;-0.90;96.00
10911;DHT22;5508;49.150;11.030;2023-03-03T20:23:42;-1.00;96.60
10911;DHT22;5508;49.150;11.030;2023-03-03T20:27:41;-1.10;97.30
10911;DHT22;5508;49.150;11.030;2023-03-03T20:50:52;-1.50;98.00
10911;DHT22;5508;49.150;11.030;2023-03-03T20:57:23;-1.60;98.00
10911;DHT22;5508;49.150;11.030;2023-03-03T21:00:48;-1.70;98.60
10911;DHT22;5508;49.150;11.030;2023-03-03T21:03:50;-1.70;99.00
10911;DHT22;5508;49.150;11.030;2023-03-03T21:06:50;-1.80;99.20
10911;DHT22;5508;49.150;11.030;2023-03-03T21:10:13;-1.80;98.90
10911;DHT22;5508;49.150;11.030;2023-03-03T21:13:37;-1.80;99.50
10911;DHT22;5508;49.150;11.030;2023-03-03T21:16:40;-1.90;99.50
10911;DHT22;5508;49.150;11.030;2023-03-03T21:19:40;-1.90;99.90
10911;DHT22;5508;49.150;11.030;2023-03-03T21:22:41;-1.90;99.90
10911;DHT22;5508;49.150;11.030;2023-03-03T21:25:55;-2.00;99.90
10911;DHT22;5508;49.150;11.030;2023-03-03T21:29:00;-2.00;99.90
10911;DHT22;5508;49.150;11.030;2023-03-03T21:32:06;-2.00;99.90
10911;DHT22;5508;49.150;11.030;2023-03-03T21:38:09;-2.20;99.90
10911;DHT22;5508;49.150;11.030;2023-03-03T21:41:11;-2.30;99.90
10911;DHT22;5508;49.150;11.030;2023-03-03T21:44:49;-2.30;99.90
10911;DHT22;5508;49.150;11.030;2023-03-03T21:47:51;-2.40;99.90
10911;DHT22;5508;49.150;11.030;2023-03-03T21:50:52;-2.40;99.90
10911;DHT22;5508;49.150;11.030;2023-03-03T21:53:53;-2.40;99.90
10911;DHT22;5508;49.150;11.030;2023-03-03T21:56:55;-2.40;99.90
10911;DHT22;5508;49.150;11.030;2023-03-03T21:59:56;-2.40;99.90
10911;DHT22;5508;49.150;11.030;2023-03-03T22:02:56;-2.50;99.60
10911;DHT22;5508;49.150;11.030;2023-03-03T22:05:57;-2.50;99.90
10911;DHT22;5508;49.150;11.030;2023-03-03T22:08:57;-2.60;99.90
10911;DHT22;5508;49.150;11.030;2023-03-03T22:11:58;-2.60;99.90
10911;DHT22;5508;49.150;11.030;2023-03-03T22:14:59;-2.70;99.90
10911;DHT22;5508;49.150;11.030;2023-03-03T22:18:00;-2.70;99.90
10911;DHT22;5508;49.150;11.030;2023-03-03T22:21:00;-2.80;99.90
10911;DHT22;5508;49.150;11.030;2023-03-03T22:24:01;-2.80;99.90
10911;DHT22;5508;49.150;11.030;2023-03-03T22:27:02;-2.80;99.90
10911;DHT22;5508;49.150;11.030;2023-03-03T22:30:03;-2.80;99.90
10911;DHT22;5508;49.150;11.030;2023-03-03T22:33:04;-2.90;99.90
10911;DHT22;5508;49.150;11.030;2023-03-03T22:36:05;-2.90;99.90
10911;DHT22;5508;49.150;11.030;2023-03-03T22:39:05;-2.90;99.90
10911;DHT22;5508;49.150;11.030;2023-03-03T22:42:06;-3.00;99.90
10911;DHT22;5508;49.150;11.030;2023-03-03T22:45:07;-2.90;99.90
10911;DHT22;5508;49.150;11.030;2023-03-03T22:48:10;-3.00;99.90
10911;DHT22;5508;49.150;11.030;2023-03-03T22:51:10;-3.00;99.90
10911;DHT22;5508;49.150;11.030;2023-03-03T22:54:11;-3.10;99.90
10911;DHT22;5508;49.150;11.030;2023-03-03T22:57:11;-2.90;99.90
10911;DHT22;5508;49.150;11.030;2023-03-03T23:00:13;-2.90;99.90
10911;DHT22;5508;49.150;11.030;2023-03-03T23:03:14;-3.00;99.90
10911;DHT22;5508;49.150;11.030;2023-03-03T23:06:15;-3.10;99.90
10911;DHT22;5508;49.150;11.030;2023-03-03T23:09:15;-3.10;99.90
10911;DHT22;5508;49.150;11.030;2023-03-03T23:12:16;-3.10;99.90
10911;DHT22;5508;49.150;11.030;2023-03-03T23:15:17;-3.20;99.90
10911;DHT22;5508;49.150;11.030;2023-03-03T23:18:17;-3.20;99.90
10911;DHT22;5508;49.150;11.030;2023-03-03T23:21:18;-3.30;99.90
10911;DHT22;5508;49.150;11.030;2023-03-03T23:24:19;-3.30;99.90
10911;DHT22;5508;49.150;11.030;2023-03-03T23:27:19;-3.30;99.90
10911;DHT22;5508;49.150;11.030;2023-03-03T23:30:20;-3.30;99.90
10911;DHT22;5508;49.150;11.030;2023-03-03T23:33:21;-3.30;99.90
10911;DHT22;5508;49.150;11.030;2023-03-03T23:36:22;-3.40;99.90
10911;DHT22;5508;49.150;11.030;2023-03-03T23:39:22;-3.40;99.90
10911;DHT22;5508;49.150;11.030;2023-03-03T23:42:23;-3.40;99.90
10911;DHT22;5508;49.150;11.030;2023-03-03T23:45:32;-3.40;99.90
10911;DHT22;5508;49.150;11.030;2023-03-03T23:48:33;-3.40;99.90
10911;DHT22;5508;49.150;11.030;2023-03-03T23:51:34;-3.40;99.90
10911;DHT22;5508;49.150;11.030;2023-03-03T23:54:34;-3.50;99.90
10911;DHT22;5508;49.150;11.030;2023-03-03T23:57:35;-3.50;99.90
